createdAt,value
2022-08-20T00:00:48.557Z,10.75
2022-08-20T00:03:23.339Z,8.93
2022-08-20T00:05:57.538Z,9.88
2022-08-20T00:08:24.987Z,7.97
2022-08-20T00:10:55.637Z,9.18
2022-08-20T00:13:28.784Z,10.38
2022-08-20T00:15:56.484Z,8.73
2022-08-20T00:18:24.247Z,9.70
2022-08-20T00:20:53.512Z,11.07
2022-08-20T00:23:21.463Z,9.23
2022-08-20T00:25:48.411Z,8.02
2022-08-20T00:28:15.308Z,11.98
2022-08-20T00:30:45.786Z,8.02
2022-08-20T00:33:15.917Z,10.77
2022-08-20T00:35:47.241Z,7.68
2022-08-20T00:38:14.694Z,8.45
2022-08-20T00:40:51.950Z,9.18
2022-08-20T00:43:36.127Z,7.10
2022-08-20T00:46:07.363Z,8.73
2022-08-20T00:48:37.175Z,8.75
2022-08-20T00:51:18.075Z,7.75
2022-08-20T00:53:45.061Z,7.95
2022-08-20T00:56:12.861Z,6.70
2022-08-20T00:58:42.159Z,6.60
2022-08-20T01:01:09.614Z,5.88
2022-08-20T01:03:36.442Z,10.63
2022-08-20T01:06:03.573Z,6.15
2022-08-20T01:08:30.363Z,6.35
2022-08-20T01:11:08.621Z,7.35
2022-08-20T01:13:38.599Z,6.28
2022-08-20T01:16:13.109Z,7.32
2022-08-20T01:18:40.422Z,5.85
2022-08-20T01:21:08.474Z,5.03
2022-08-20T01:24:07.674Z,5.50
2022-08-20T01:26:44.146Z,6.50
2022-08-20T01:29:15.519Z,5.88
2022-08-20T01:31:43.051Z,7.03
2022-08-20T01:34:13.431Z,6.28
2022-08-20T01:36:46.270Z,6.40
2022-08-20T01:42:09.352Z,6.25
2022-08-20T01:44:39.620Z,5.53
2022-08-20T01:47:16.409Z,5.40
2022-08-20T01:49:46.436Z,8.65
2022-08-20T01:52:33.398Z,5.55
2022-08-20T01:55:00.401Z,7.65
2022-08-20T01:57:27.593Z,7.22
2022-08-20T01:59:55.119Z,6.53
2022-08-20T02:02:22.446Z,7.10
2022-08-20T02:04:49.467Z,8.52
2022-08-20T02:07:19.773Z,5.97
2022-08-20T02:09:48.638Z,6.40
2022-08-20T02:12:16.622Z,6.88
2022-08-20T02:14:51.261Z,5.80
2022-08-20T02:17:22.485Z,8.93
2022-08-20T02:20:02.744Z,7.25
2022-08-20T02:22:58.565Z,7.18
2022-08-20T02:25:28.325Z,7.45
2022-08-20T02:27:56.583Z,7.00
2022-08-20T02:30:51.419Z,6.82
2022-08-20T02:33:20.318Z,7.50
2022-08-20T02:35:52.670Z,5.72
2022-08-20T02:38:19.620Z,5.82
2022-08-20T02:40:49.024Z,5.97
2022-08-20T02:43:18.281Z,6.38
2022-08-20T02:45:45.018Z,6.60
2022-08-20T02:48:20.976Z,6.22
2022-08-20T02:50:53.558Z,7.45
2022-08-20T02:53:21.280Z,7.78
2022-08-20T02:55:48.164Z,6.43
2022-08-20T02:58:15.110Z,6.47
2022-08-20T03:00:41.964Z,8.35
2022-08-20T03:03:10.733Z,7.25
2022-08-20T03:05:40.208Z,7.47
2022-08-20T03:08:09.400Z,8.00
2022-08-20T03:10:39.846Z,7.55
2022-08-20T03:13:11.213Z,6.18
2022-08-20T03:15:40.582Z,8.30
2022-08-20T03:18:07.737Z,7.85
2022-08-20T03:20:34.883Z,9.50
2022-08-20T03:23:02.084Z,9.27
2022-08-20T03:25:29.204Z,15.30
2022-08-20T03:27:58.006Z,10.65
2022-08-20T03:30:27.948Z,11.10
2022-08-20T03:32:55.296Z,10.23
2022-08-20T03:35:23.779Z,9.98
2022-08-20T03:37:50.866Z,8.40
2022-08-20T03:40:22.121Z,11.45
2022-08-20T03:42:49.007Z,8.75
2022-08-20T03:45:20.238Z,11.02
2022-08-20T03:47:48.564Z,10.93
2022-08-20T03:50:23.692Z,11.43
2022-08-20T03:52:52.298Z,9.43
2022-08-20T03:55:20.147Z,9.43
2022-08-20T03:57:50.591Z,9.75
2022-08-20T04:00:22.554Z,10.18
2022-08-20T04:02:49.615Z,11.95
2022-08-20T04:05:16.758Z,9.15
2022-08-20T04:07:44.708Z,10.63
2022-08-20T04:10:12.525Z,12.95
2022-08-20T04:12:48.731Z,8.20
2022-08-20T04:15:21.187Z,10.25
2022-08-20T04:17:54.063Z,10.82
2022-08-20T04:20:24.074Z,9.60
2022-08-20T04:22:59.482Z,9.95
2022-08-20T04:25:35.714Z,10.52
2022-08-20T04:28:06.465Z,9.88
2022-08-20T04:30:33.644Z,8.10
2022-08-20T04:33:00.710Z,9.65
2022-08-20T04:35:27.764Z,8.50
2022-08-20T04:38:03.410Z,8.60
2022-08-20T04:40:50.845Z,8.43
2022-08-20T04:43:17.775Z,11.77
2022-08-20T04:45:45.229Z,10.15
2022-08-20T04:48:15.140Z,13.18
2022-08-20T04:50:44.202Z,10.68
2022-08-20T04:53:13.992Z,9.27
2022-08-20T04:55:42.972Z,11.60
2022-08-20T04:58:22.311Z,12.73
2022-08-20T05:00:51.544Z,9.30
2022-08-20T05:03:19.406Z,8.50
2022-08-20T05:05:47.177Z,13.05
2022-08-20T05:08:20.155Z,9.63
2022-08-20T05:10:47.697Z,9.48
2022-08-20T05:13:14.921Z,10.93
2022-08-20T05:15:41.971Z,10.40
2022-08-20T05:18:09.279Z,10.13
2022-08-20T05:20:40.250Z,10.70
2022-08-20T05:23:12.402Z,9.00
2022-08-20T05:25:40.862Z,10.38
2022-08-20T05:28:13.792Z,9.60
2022-08-20T05:30:45.330Z,10.25
2022-08-20T05:33:19.732Z,9.52
2022-08-20T05:35:48.537Z,11.20
2022-08-20T05:38:18.629Z,14.63
2022-08-20T05:40:45.960Z,9.07
2022-08-20T05:43:12.899Z,9.15
2022-08-20T05:45:41.337Z,13.48
2022-08-20T05:48:13.673Z,9.65
2022-08-20T05:50:42.905Z,11.00
2022-08-20T05:53:09.837Z,10.55
2022-08-20T05:55:39.654Z,10.10
2022-08-20T05:58:09.457Z,9.57
2022-08-20T06:00:36.263Z,13.25
2022-08-20T06:03:21.430Z,10.40
2022-08-20T06:05:48.231Z,10.27
2022-08-20T06:08:16.693Z,11.80
2022-08-20T06:10:44.326Z,10.18
2022-08-20T06:13:14.190Z,9.35
2022-08-20T06:15:41.292Z,11.82
2022-08-20T06:18:28.060Z,8.98
2022-08-20T06:20:56.054Z,9.30
2022-08-20T06:23:25.289Z,10.00
2022-08-20T06:25:52.817Z,10.55
2022-08-20T06:28:19.754Z,12.32
2022-08-20T06:30:46.888Z,9.60
2022-08-20T06:33:13.697Z,11.38
2022-08-20T06:35:40.527Z,10.93
2022-08-20T06:38:11.190Z,9.32
2022-08-20T06:40:37.996Z,9.35
2022-08-20T06:43:04.814Z,10.20
2022-08-20T06:45:32.985Z,9.82
2022-08-20T06:48:01.632Z,9.85
2022-08-20T06:50:33.008Z,9.52
2022-08-20T06:53:00.295Z,10.13
2022-08-20T06:55:27.309Z,9.98
2022-08-20T06:57:59.312Z,10.38
2022-08-20T07:00:27.881Z,12.02
2022-08-20T07:02:54.868Z,12.00
2022-08-20T07:05:21.653Z,12.98
2022-08-20T07:07:50.892Z,9.93
2022-08-20T07:10:18.894Z,12.15
2022-08-20T07:12:46.905Z,12.40
2022-08-20T07:15:14.618Z,13.02
2022-08-20T07:17:41.984Z,13.95
2022-08-20T07:20:15.312Z,12.07
2022-08-20T07:22:43.256Z,10.25
2022-08-20T07:25:12.625Z,15.43
2022-08-20T07:27:40.145Z,12.25
2022-08-20T07:30:28.127Z,11.15
2022-08-20T07:32:55.245Z,10.55
2022-08-20T07:35:22.022Z,12.73
2022-08-20T07:37:51.868Z,12.82
2022-08-20T07:40:26.161Z,11.40
2022-08-20T07:42:58.600Z,10.55
2022-08-20T07:45:25.627Z,13.40
2022-08-20T07:47:55.930Z,11.90
2022-08-20T07:50:25.162Z,14.25
2022-08-20T07:52:53.138Z,11.27
2022-08-20T07:55:21.207Z,13.93
2022-08-20T07:57:50.157Z,11.95
2022-08-20T08:00:20.614Z,10.07
2022-08-20T08:02:47.617Z,12.88
2022-08-20T08:05:15.185Z,10.25
2022-08-20T08:07:43.053Z,11.02
2022-08-20T08:10:14.111Z,11.68
2022-08-20T08:12:45.631Z,12.68
2022-08-20T08:15:18.508Z,15.30
2022-08-20T08:17:48.694Z,11.82
2022-08-20T08:20:17.116Z,14.02
2022-08-20T08:22:44.154Z,11.98
2022-08-20T08:25:12.935Z,11.70
2022-08-20T08:27:40.722Z,11.25
2022-08-20T08:30:08.907Z,11.48
2022-08-20T08:32:59.437Z,14.50
2022-08-20T08:35:26.670Z,12.20
2022-08-20T08:37:54.050Z,9.88
2022-08-20T08:40:21.827Z,11.15
2022-08-20T08:42:55.860Z,11.85
2022-08-20T08:45:22.924Z,13.43
2022-08-20T08:47:50.890Z,11.43
2022-08-20T08:50:50.197Z,11.45
2022-08-20T08:53:37.554Z,13.63
2022-08-20T08:56:06.338Z,13.25
2022-08-20T08:58:35.198Z,12.63
2022-08-20T09:01:54.581Z,10.95
2022-08-20T09:04:10.437Z,11.88
2022-08-20T09:06:37.483Z,10.43
2022-08-20T09:09:06.124Z,13.95
2022-08-20T09:11:48.126Z,12.32
2022-08-20T09:14:15.093Z,13.93
2022-08-20T09:16:52.912Z,13.98
2022-08-20T09:19:21.262Z,11.65
2022-08-20T09:21:48.302Z,12.25
2022-08-20T09:24:15.107Z,11.93
2022-08-20T09:26:41.960Z,13.93
2022-08-20T09:29:08.737Z,11.50
2022-08-20T09:31:35.897Z,11.70
2022-08-20T09:34:05.686Z,12.75
2022-08-20T09:36:33.119Z,12.40
2022-08-20T09:39:02.994Z,11.35
2022-08-20T09:41:31.170Z,13.30
2022-08-20T09:44:00.647Z,12.98
2022-08-20T09:46:27.742Z,11.60
2022-08-20T09:48:55.283Z,12.65
2022-08-20T09:51:22.800Z,14.40
2022-08-20T09:53:50.062Z,12.70
2022-08-20T09:56:17.513Z,12.43
2022-08-20T09:58:53.132Z,14.75
2022-08-20T10:01:22.151Z,13.10
2022-08-20T10:03:49.774Z,13.15
2022-08-20T10:06:19.591Z,15.30
2022-08-20T10:08:46.645Z,12.88
2022-08-20T10:11:13.498Z,14.60
2022-08-20T10:13:40.286Z,15.68
2022-08-20T10:16:07.242Z,16.20
2022-08-20T10:18:35.372Z,14.70
2022-08-20T10:21:02.364Z,15.93
2022-08-20T10:23:29.203Z,15.02
2022-08-20T10:25:55.962Z,16.05
2022-08-20T10:28:22.784Z,17.17
2022-08-20T10:30:49.531Z,16.35
2022-08-20T10:33:16.324Z,16.20
2022-08-20T10:35:43.052Z,17.83
2022-08-20T10:38:09.887Z,18.13
2022-08-20T10:40:36.654Z,18.00
2022-08-20T10:43:03.668Z,19.40
2022-08-20T10:45:31.076Z,21.25
2022-08-20T10:48:01.298Z,18.92
2022-08-20T10:50:30.308Z,20.55
2022-08-20T10:52:57.976Z,18.77
2022-08-20T10:55:24.868Z,20.63
2022-08-20T10:57:51.790Z,19.20
2022-08-20T11:00:19.612Z,18.83
2022-08-20T11:02:46.606Z,19.02
2022-08-20T11:05:13.470Z,20.92
2022-08-20T11:07:55.046Z,21.60
2022-08-20T11:10:25.476Z,21.00
2022-08-20T11:12:52.319Z,21.30
2022-08-20T11:15:19.142Z,19.45
2022-08-20T11:17:45.966Z,20.33
2022-08-20T11:20:15.705Z,23.35
2022-08-20T11:22:42.630Z,22.77
2022-08-20T11:25:10.059Z,22.42
2022-08-20T11:27:42.546Z,23.00
2022-08-20T11:30:18.450Z,23.20
2022-08-20T11:32:45.204Z,24.40
2022-08-20T11:35:40.483Z,25.42
2022-08-20T11:37:59.729Z,26.35
2022-08-20T11:40:28.995Z,24.88
2022-08-20T11:43:14.210Z,27.38
2022-08-20T11:45:42.318Z,28.80
2022-08-20T11:48:09.071Z,23.50
2022-08-20T11:50:35.823Z,24.15
2022-08-20T11:53:02.691Z,27.27
2022-08-20T11:55:31.123Z,23.00
2022-08-20T11:57:59.795Z,25.88
2022-08-20T12:00:31.959Z,24.98
2022-08-20T12:03:05.187Z,25.17
2022-08-20T12:05:32.833Z,26.88
2022-08-20T12:08:02.712Z,26.05
2022-08-20T12:10:30.481Z,25.60
2022-08-20T12:12:57.868Z,26.67
2022-08-20T12:15:26.638Z,24.77
2022-08-20T12:17:53.498Z,23.42
2022-08-20T12:20:20.648Z,26.17
2022-08-20T12:22:47.465Z,25.48
2022-08-20T12:25:14.663Z,24.40
2022-08-20T12:27:41.665Z,26.85
2022-08-20T12:30:12.415Z,27.50
2022-08-20T12:32:39.961Z,26.65
2022-08-20T12:35:09.123Z,25.10
2022-08-20T12:37:36.656Z,25.17
2022-08-20T12:40:07.388Z,25.85
2022-08-20T12:42:34.320Z,26.08
2022-08-20T12:45:01.680Z,25.63
2022-08-20T12:47:34.776Z,26.00
2022-08-20T12:50:05.729Z,25.88
2022-08-20T12:52:32.844Z,28.33
2022-08-20T12:55:00.750Z,27.45
2022-08-20T12:57:30.779Z,27.50
2022-08-20T13:00:00.127Z,28.33
2022-08-20T13:02:28.039Z,27.83
2022-08-20T13:04:54.825Z,27.35
2022-08-20T13:07:23.902Z,25.55
2022-08-20T13:09:50.717Z,26.65
2022-08-20T13:12:17.793Z,28.05
2022-08-20T13:14:44.586Z,27.85
2022-08-20T13:17:11.552Z,27.45
2022-08-20T13:19:39.619Z,27.77
2022-08-20T13:22:06.421Z,28.75
2022-08-20T13:24:33.901Z,26.42
2022-08-20T13:27:06.089Z,28.58
2022-08-20T13:29:32.867Z,30.15
2022-08-20T13:31:59.609Z,25.77
2022-08-20T13:34:26.424Z,27.45
2022-08-20T13:36:55.236Z,23.88
2022-08-20T13:39:23.025Z,22.48
2022-08-20T13:41:50.193Z,25.13
2022-08-20T13:44:16.974Z,26.35
2022-08-20T13:46:43.739Z,25.25
2022-08-20T13:49:10.486Z,24.17
2022-08-20T13:51:37.283Z,28.35
2022-08-20T13:54:04.157Z,24.92
2022-08-20T13:56:30.926Z,23.27
2022-08-20T13:58:57.691Z,24.80
2022-08-20T14:01:24.498Z,24.50
2022-08-20T14:03:51.293Z,23.52
2022-08-20T14:06:18.023Z,24.13
2022-08-20T14:08:45.198Z,24.05
2022-08-20T14:11:13.898Z,25.83
2022-08-20T14:13:44.582Z,25.97
2022-08-20T14:16:25.490Z,24.20
2022-08-20T14:18:56.214Z,25.67
2022-08-20T14:21:22.996Z,24.77
2022-08-20T14:23:49.810Z,24.15
2022-08-20T14:26:16.549Z,27.25
2022-08-20T14:28:43.349Z,22.95
2022-08-20T14:31:10.181Z,23.02
2022-08-20T14:33:40.233Z,21.90
2022-08-20T14:36:09.537Z,24.30
2022-08-20T14:38:37.632Z,26.40
2022-08-20T14:41:04.415Z,22.73
2022-08-20T14:43:31.146Z,22.20
2022-08-20T14:45:57.897Z,24.70
2022-08-20T14:48:27.997Z,23.88
2022-08-20T14:50:55.861Z,26.67
2022-08-20T14:53:22.661Z,22.95
2022-08-20T14:55:49.441Z,22.38
2022-08-20T14:58:17.071Z,24.70
2022-08-20T15:00:44.206Z,22.48
2022-08-20T15:03:11.146Z,24.45
2022-08-20T15:05:39.376Z,23.77
2022-08-20T15:08:13.167Z,24.05
2022-08-20T15:10:42.261Z,24.45
2022-08-20T15:13:12.127Z,22.27
2022-08-20T15:15:40.522Z,24.20
2022-08-20T15:18:07.965Z,23.13
2022-08-20T15:20:35.895Z,24.73
2022-08-20T15:23:04.528Z,24.58
2022-08-20T15:25:36.453Z,24.92
2022-08-20T15:28:07.382Z,26.92
2022-08-20T15:30:34.878Z,23.60
2022-08-20T15:33:02.076Z,24.77
2022-08-20T15:35:29.454Z,26.70
2022-08-20T15:37:58.259Z,27.42
2022-08-20T15:40:28.435Z,25.67
2022-08-20T15:42:57.166Z,25.08
2022-08-20T15:45:24.660Z,24.52
2022-08-20T15:48:02.985Z,25.83
2022-08-20T15:50:51.599Z,25.02
2022-08-20T15:53:31.116Z,24.52
2022-08-20T15:56:22.024Z,26.95
2022-08-20T15:59:05.045Z,25.63
2022-08-20T16:01:42.319Z,27.85
2022-08-20T16:04:14.896Z,26.17
2022-08-20T16:06:43.721Z,28.70
2022-08-20T16:09:30.992Z,25.90
2022-08-20T16:12:11.013Z,26.83
2022-08-20T16:14:41.866Z,28.35
2022-08-20T16:17:14.694Z,28.83
2022-08-20T16:20:00.483Z,25.80
2022-08-20T16:22:30.046Z,29.33
2022-08-20T16:24:57.271Z,27.55
2022-08-20T16:27:45.766Z,29.80
2022-08-20T16:30:32.751Z,28.38
2022-08-20T16:33:21.784Z,28.52
2022-08-20T16:35:58.064Z,29.30
2022-08-20T16:38:48.181Z,31.90
2022-08-20T16:41:30.850Z,27.83
2022-08-20T16:44:16.692Z,31.63
2022-08-20T16:46:58.774Z,30.05
2022-08-20T16:49:29.347Z,31.65
2022-08-20T16:51:56.326Z,29.30
2022-08-20T16:54:28.297Z,30.13
2022-08-20T16:57:01.011Z,31.90
2022-08-20T16:59:28.374Z,31.85
2022-08-20T17:02:10.520Z,31.83
2022-08-20T17:04:58.443Z,31.05
2022-08-20T17:07:53.866Z,30.17
2022-08-20T17:10:31.642Z,31.38
2022-08-20T17:13:28.200Z,31.92
2022-08-20T17:16:01.786Z,33.25
2022-08-20T17:18:32.706Z,33.58
2022-08-20T17:21:22.876Z,32.67
2022-08-20T17:23:56.398Z,31.10
2022-08-20T17:26:46.453Z,32.92
2022-08-20T17:29:16.030Z,33.95
2022-08-20T17:31:46.626Z,33.97
2022-08-20T17:34:25.713Z,32.97
2022-08-20T17:36:54.265Z,32.45
2022-08-20T17:39:22.668Z,35.13
2022-08-20T17:41:53.525Z,32.42
2022-08-20T17:44:29.397Z,33.72
2022-08-20T17:46:57.378Z,33.50
2022-08-20T17:49:34.521Z,34.60
2022-08-20T17:52:04.724Z,36.10
2022-08-20T17:54:36.976Z,34.38
2022-08-20T17:57:09.572Z,32.47
2022-08-20T18:00:00.102Z,33.70
2022-08-20T18:02:29.210Z,35.90
2022-08-20T18:04:56.598Z,40.72
2022-08-20T18:07:32.491Z,37.15
2022-08-20T18:10:07.927Z,40.67
2022-08-20T18:12:56.336Z,40.15
2022-08-20T18:15:29.541Z,40.47
2022-08-20T18:18:14.287Z,37.90
2022-08-20T18:21:11.645Z,40.55
2022-08-20T18:24:00.702Z,38.80
2022-08-20T18:27:00.894Z,39.40
2022-08-20T18:29:35.159Z,41.42
2022-08-20T18:32:05.707Z,41.95
2022-08-20T18:34:32.414Z,43.97
2022-08-20T18:37:21.258Z,45.35
2022-08-20T18:39:50.277Z,40.97
2022-08-20T18:42:29.302Z,42.70
2022-08-20T18:44:57.164Z,46.47
2022-08-20T18:47:33.009Z,47.28
2022-08-20T18:50:06.493Z,44.78
2022-08-20T18:53:05.163Z,45.90
2022-08-20T18:55:44.613Z,40.45
2022-08-20T18:58:14.881Z,31.77
2022-08-20T19:00:47.138Z,31.58
2022-08-20T19:03:16.966Z,29.85
2022-08-20T19:06:05.613Z,28.35
2022-08-20T19:08:51.005Z,25.02
2022-08-20T19:11:44.125Z,25.25
2022-08-20T19:14:16.753Z,21.97
2022-08-20T19:16:53.023Z,19.07
2022-08-20T19:19:23.763Z,21.33
2022-08-20T19:21:51.446Z,23.73
2022-08-20T19:24:32.617Z,22.38
2022-08-20T19:27:04.492Z,19.73
2022-08-20T19:29:35.082Z,16.58
2022-08-20T19:32:06.181Z,16.92
2022-08-20T19:34:34.048Z,20.55
2022-08-20T19:37:35.086Z,17.38
2022-08-20T19:40:18.536Z,17.90
2022-08-20T19:42:46.252Z,18.27
2022-08-20T19:45:27.135Z,16.83
2022-08-20T19:48:09.865Z,18.70
2022-08-20T19:50:47.841Z,19.52
2022-08-20T19:53:30.353Z,18.75
2022-08-20T19:56:05.847Z,19.90
2022-08-20T19:58:34.332Z,19.80
2022-08-20T20:01:04.015Z,17.90
2022-08-20T20:03:33.858Z,18.95
2022-08-20T20:06:16.181Z,21.92
2022-08-20T20:09:07.700Z,20.25
2022-08-20T20:11:37.795Z,20.50
2022-08-20T20:14:10.216Z,21.20
2022-08-20T20:16:39.151Z,20.38
2022-08-20T20:19:27.842Z,19.13
2022-08-20T20:22:10.399Z,18.73
2022-08-20T20:24:50.786Z,20.52
2022-08-20T20:27:22.585Z,19.00
2022-08-20T20:29:51.735Z,20.25
2022-08-20T20:32:24.053Z,19.48
2022-08-20T20:34:56.768Z,19.52
2022-08-20T20:37:37.933Z,20.73
2022-08-20T20:40:28.042Z,21.55
2022-08-20T20:43:07.265Z,20.33
2022-08-20T20:45:44.085Z,19.85
2022-08-20T20:48:23.435Z,22.08
2022-08-20T20:50:51.306Z,16.52
2022-08-20T20:53:52.987Z,17.98
2022-08-20T20:56:26.937Z,22.58
2022-08-20T20:58:55.788Z,20.25
2022-08-20T21:01:41.206Z,21.90
2022-08-20T21:04:10.322Z,20.25
2022-08-20T21:06:37.171Z,20.52
2022-08-20T21:09:04.050Z,21.65
2022-08-20T21:11:30.838Z,20.63
2022-08-20T21:13:57.598Z,21.23
2022-08-20T21:16:24.457Z,22.52
2022-08-20T21:18:51.221Z,21.48
2022-08-20T21:21:17.984Z,21.88
2022-08-20T21:23:44.785Z,20.05
2022-08-20T21:26:11.742Z,20.23
2022-08-20T21:28:38.545Z,20.55
2022-08-20T21:31:05.455Z,21.70
2022-08-20T21:33:32.275Z,22.23
2022-08-20T21:35:59.057Z,19.23
2022-08-20T21:38:25.815Z,20.10
2022-08-20T21:40:52.610Z,19.25
2022-08-20T21:43:19.422Z,19.42
2022-08-20T21:45:49.710Z,22.75
2022-08-20T21:48:16.925Z,20.23
2022-08-20T21:50:43.737Z,18.02
2022-08-20T21:53:12.901Z,18.55
2022-08-20T21:55:40.512Z,19.05
2022-08-20T21:58:08.441Z,21.00
2022-08-20T22:01:00.118Z,19.63
2022-08-20T22:03:32.866Z,23.67
2022-08-20T22:06:01.611Z,22.38
2022-08-20T22:08:29.014Z,23.75
2022-08-20T22:10:57.690Z,24.10
2022-08-20T22:13:28.181Z,23.35
2022-08-20T22:15:55.015Z,31.05
2022-08-20T22:18:21.806Z,24.08
2022-08-20T22:20:49.191Z,27.27
2022-08-20T22:23:15.953Z,22.75
2022-08-20T22:25:42.785Z,20.25
2022-08-20T22:28:09.721Z,26.13
2022-08-20T22:30:41.704Z,24.70
2022-08-20T22:33:13.343Z,25.70
2022-08-20T22:35:47.337Z,25.13
2022-08-20T22:38:14.758Z,26.45
2022-08-20T22:40:42.174Z,26.00
2022-08-20T22:43:09.718Z,21.65
2022-08-20T22:45:37.111Z,22.65
2022-08-20T22:48:06.102Z,21.33
2022-08-20T22:50:33.294Z,24.85
2022-08-20T22:53:01.709Z,19.35
2022-08-20T22:55:28.583Z,21.75
2022-08-20T22:57:55.365Z,19.58
2022-08-20T23:00:24.496Z,23.00
2022-08-20T23:02:55.009Z,23.20
2022-08-20T23:05:25.072Z,22.38
2022-08-20T23:07:54.348Z,24.00
2022-08-20T23:10:22.824Z,26.15
2022-08-20T23:12:49.564Z,25.85
2022-08-20T23:15:16.364Z,24.90
2022-08-20T23:17:43.804Z,20.75
2022-08-20T23:20:14.194Z,22.70
2022-08-20T23:22:41.103Z,22.90
2022-08-20T23:25:09.689Z,20.88
2022-08-20T23:27:46.021Z,22.00
2022-08-20T23:30:14.406Z,21.75
2022-08-20T23:32:41.163Z,23.20
2022-08-20T23:35:08.908Z,17.70
2022-08-20T23:37:39.950Z,20.70
2022-08-20T23:40:07.910Z,18.27
2022-08-20T23:42:34.861Z,19.52
2022-08-20T23:45:01.741Z,19.67
2022-08-20T23:47:29.136Z,31.70
2022-08-20T23:49:55.890Z,75.55
2022-08-20T23:52:22.650Z,74.95
2022-08-20T23:54:49.808Z,49.30
2022-08-20T23:57:16.670Z,37.75
2022-08-20T23:59:48.159Z,37.80
